Time;durP1;ratioP1;P1;durP2;ratioP2;P2;SDS_P1;SDS_P2;PMS_P1;PMS_P2;Temp;Humidity;BMP_temperature;BMP_pressure;BME280_temperature;BME280_humidity;BME280_pressure;Samples;Min_cycle;Max_cycle;Signal;HPM_P1;HPM_P2
2024/03/10 00:00:41;;;;;;;1.30;0.17;;;;;;;7.36;100.00;100075.69;5132792;27;20023;-69
2024/03/10 00:03:07;;;;;;;2.08;0.40;;;;;;;7.37;100.00;100068.75;5131609;27;20504;-69
2024/03/10 00:05:34;;;;;;;1.70;0.20;;;;;;;7.37;100.00;100073.91;5128203;27;20042;-70
2024/03/10 00:07:59;;;;;;;2.38;0.20;;;;;;;7.34;100.00;100075.00;5130555;27;20367;-70
2024/03/10 00:10:25;;;;;;;1.65;0.20;;;;;;;7.33;100.00;100068.19;5128811;27;20106;-70
2024/03/10 00:12:50;;;;;;;0.55;0.20;;;;;;;7.32;100.00;100064.78;5127590;27;20034;-69
2024/03/10 00:15:17;;;;;;;1.35;0.20;;;;;;;7.32;100.00;100061.38;5125091;27;20057;-69
2024/03/10 00:17:43;;;;;;;0.85;0.20;;;;;;;7.29;100.00;100061.63;5130418;27;20059;-69
2024/03/10 00:20:09;;;;;;;1.42;0.20;;;;;;;7.30;100.00;100060.69;5129057;27;20102;-70
2024/03/10 00:22:41;;;;;;;1.30;0.20;;;;;;;7.27;100.00;100060.94;5127767;27;20358;-69
2024/03/10 00:25:07;;;;;;;3.30;0.30;;;;;;;7.24;100.00;100051.66;5127441;27;20045;-70
2024/03/10 00:27:36;;;;;;;1.13;0.30;;;;;;;7.22;100.00;100057.94;5106974;27;20035;-70
2024/03/10 00:30:04;;;;;;;0.98;0.20;;;;;;;7.18;100.00;100047.00;5090918;27;20390;-69
2024/03/10 00:32:31;;;;;;;2.92;0.20;;;;;;;7.18;100.00;100051.38;5129623;27;20420;-69
2024/03/10 00:34:57;;;;;;;0.93;0.30;;;;;;;7.23;100.00;100046.59;5129784;27;20046;-69
2024/03/10 00:37:22;;;;;;;0.60;0.30;;;;;;;7.23;100.00;100041.44;5124577;27;20028;-69
2024/03/10 00:39:48;;;;;;;2.38;0.40;;;;;;;7.23;100.00;100050.03;5131189;27;20483;-70
2024/03/10 00:42:13;;;;;;;1.27;0.20;;;;;;;7.24;100.00;100050.84;5129164;27;20383;-69
2024/03/10 00:44:38;;;;;;;0.80;0.20;;;;;;;7.24;100.00;100056.03;5127241;27;20031;-69
2024/03/10 00:47:04;;;;;;;1.92;0.25;;;;;;;7.26;100.00;100051.53;5132802;27;20367;-70
2024/03/10 00:49:30;;;;;;;1.02;0.20;;;;;;;7.27;100.00;100050.56;5122804;27;20386;-69
2024/03/10 00:51:55;;;;;;;1.70;0.40;;;;;;;7.30;100.00;100045.13;5128219;27;20466;-70
2024/03/10 00:54:21;;;;;;;0.70;0.22;;;;;;;7.31;100.00;100041.59;5127925;27;20505;-69
2024/03/10 00:56:47;;;;;;;0.70;0.20;;;;;;;7.28;100.00;100034.06;5129709;27;20076;-69
2024/03/10 00:59:13;;;;;;;1.08;0.20;;;;;;;7.27;100.00;100029.84;5130164;27;20114;-69
2024/03/10 01:01:39;;;;;;;1.13;0.20;;;;;;;7.25;100.00;100023.97;5128655;27;20123;-70
2024/03/10 01:04:05;;;;;;;5.50;0.20;;;;;;;7.26;100.00;100023.03;5124898;27;20034;-69
2024/03/10 01:06:30;;;;;;;0.82;0.20;;;;;;;7.26;100.00;100033.38;5129151;27;20107;-69
2024/03/10 01:08:57;;;;;;;0.80;0.20;;;;;;;7.26;100.00;100020.44;5128869;27;20050;-69
2024/03/10 01:11:23;;;;;;;1.67;0.20;;;;;;;7.25;100.00;100021.38;5127437;27;20047;-69
2024/03/10 01:13:50;;;;;;;0.70;0.20;;;;;;;7.22;100.00;100027.66;5131405;27;20524;-69
2024/03/10 01:16:16;;;;;;;2.47;0.22;;;;;;;7.20;100.00;100024.38;5129915;27;20038;-69
2024/03/10 01:18:42;;;;;;;0.88;0.20;;;;;;;7.21;100.00;100018.25;5131206;27;20371;-69
2024/03/10 01:21:07;;;;;;;0.70;0.20;;;;;;;7.23;100.00;100012.94;5129121;27;20076;-69
2024/03/10 01:23:33;;;;;;;3.28;0.40;;;;;;;7.20;100.00;100020.97;5131230;27;20579;-69
2024/03/10 01:25:58;;;;;;;1.70;0.20;;;;;;;7.20;100.00;100010.59;5110315;27;20080;-69
2024/03/10 01:28:24;;;;;;;0.95;0.30;;;;;;;7.20;100.00;100002.81;5129895;27;20420;-69
2024/03/10 01:30:49;;;;;;;1.02;0.40;;;;;;;7.14;100.00;99998.19;5129808;27;20109;-69
2024/03/10 01:33:14;;;;;;;1.58;0.20;;;;;;;7.09;100.00;99995.19;5130084;27;20046;-69
2024/03/10 01:35:42;;;;;;;0.73;0.22;;;;;;;6.98;100.00;99999.53;5131124;27;20042;-69
2024/03/10 01:38:08;;;;;;;2.88;0.35;;;;;;;6.89;100.00;99994.31;5128723;27;20054;-69
2024/03/10 01:40:34;;;;;;;0.65;0.20;;;;;;;6.85;100.00;99987.75;5125453;27;20466;-70
2024/03/10 01:42:59;;;;;;;2.13;0.30;;;;;;;6.83;100.00;99980.13;5128965;27;20245;-69
2024/03/10 01:45:25;;;;;;;0.90;0.25;;;;;;;6.82;100.00;99975.09;5127855;27;20035;-70
2024/03/10 01:47:51;;;;;;;0.68;0.25;;;;;;;6.88;100.00;99972.78;5129299;27;20371;-69
2024/03/10 01:50:17;;;;;;;2.88;0.20;;;;;;;6.90;100.00;99976.06;5126773;27;20030;-69
2024/03/10 01:52:47;;;;;;;0.50;0.20;;;;;;;6.99;100.00;99975.28;5130391;27;20344;-70
2024/03/10 01:55:14;;;;;;;0.85;0.30;;;;;;;7.01;100.00;99977.72;5128202;27;20038;-70
2024/03/10 01:57:40;;;;;;;0.75;0.20;;;;;;;7.03;100.00;99980.19;5127964;27;20039;-69
2024/03/10 02:00:06;;;;;;;2.08;0.30;;;;;;;7.05;100.00;99979.09;5133659;27;20046;-70
2024/03/10 02:02:32;;;;;;;0.40;0.20;;;;;;;7.09;100.00;99979.66;5110854;27;20042;-69
2024/03/10 02:05:00;;;;;;;1.00;0.30;;;;;;;7.04;100.00;99967.09;5133917;27;20454;-70
2024/03/10 02:07:26;;;;;;;0.75;0.20;;;;;;;7.09;100.00;99970.06;5104962;27;20118;-69
2024/03/10 02:09:52;;;;;;;1.33;0.32;;;;;;;7.13;100.00;99965.44;5130287;27;20138;-69
2024/03/10 02:12:18;;;;;;;1.02;0.22;;;;;;;7.13;100.00;99957.69;5128820;27;20050;-70
2024/03/10 02:15:21;;;;;;;1.58;0.40;;;;;;;7.15;100.00;99958.38;5130142;27;20074;-69
2024/03/10 02:17:48;;;;;;;4.35;0.38;;;;;;;7.18;100.00;99952.91;5077288;27;20047;-69
2024/03/10 02:20:20;;;;;;;0.75;0.30;;;;;;;7.16;100.00;99955.63;5125796;27;20023;-70
2024/03/10 02:22:49;;;;;;;4.10;0.30;;;;;;;7.12;100.00;99949.09;5127187;27;20095;-69
2024/03/10 02:25:17;;;;;;;1.23;0.30;;;;;;;7.11;100.00;99941.44;5124458;27;20091;-69
2024/03/10 02:27:50;;;;;;;0.52;0.20;;;;;;;7.12;100.00;99949.09;5127227;27;20104;-69
2024/03/10 02:30:19;;;;;;;0.50;0.38;;;;;;;7.14;100.00;99946.38;5127039;27;20514;-69
2024/03/10 02:49:11;;;;;;;2.22;0.38;;;;;;;6.51;100.00;99951.84;5123432;27;20092;-70
2024/03/10 02:51:36;;;;;;;3.55;0.20;;;;;;;6.50;100.00;99944.19;5115052;27;20043;-71
2024/03/10 02:54:02;;;;;;;4.90;0.52;;;;;;;6.48;100.00;99940.94;5130272;27;20042;-71
2024/03/10 02:56:28;;;;;;;2.88;0.40;;;;;;;6.47;100.00;99941.88;5127537;27;20035;-71
2024/03/10 02:58:53;;;;;;;3.83;0.20;;;;;;;6.46;100.00;99942.81;5127968;27;20038;-72
2024/03/10 03:01:21;;;;;;;1.40;0.30;;;;;;;6.50;100.00;99951.97;5124434;27;20148;-71
2024/03/10 03:03:46;;;;;;;4.03;0.25;;;;;;;6.57;100.00;99966.03;5127356;27;20076;-70
2024/03/10 03:06:12;;;;;;;0.70;0.20;;;;;;;6.57;100.00;99942.72;5124547;27;20032;-71
2024/03/10 03:08:38;;;;;;;0.40;0.20;;;;;;;6.56;100.00;99930.75;5126642;27;20475;-70
2024/03/10 03:11:03;;;;;;;1.15;0.35;;;;;;;6.50;100.00;99936.44;5124832;27;20087;-71
2024/03/10 03:13:30;;;;;;;1.77;0.20;;;;;;;6.43;100.00;99933.56;5122989;27;20531;-72
2024/03/10 03:15:58;;;;;;;2.80;0.20;;;;;;;6.41;100.00;99934.63;5126804;27;20024;-72
2024/03/10 03:18:23;;;;;;;1.55;0.40;;;;;;;6.40;100.00;99925.22;5126150;27;20054;-72
2024/03/10 03:20:49;;;;;;;2.97;0.38;;;;;;;6.40;100.00;99925.22;5128574;27;20456;-72
2024/03/10 03:23:14;;;;;;;4.07;0.25;;;;;;;6.39;100.00;99918.41;5126130;27;20068;-72
2024/03/10 03:25:40;;;;;;;2.28;0.28;;;;;;;6.33;100.00;99910.22;5127535;27;20399;-72
2024/03/10 03:28:06;;;;;;;1.45;0.30;;;;;;;6.31;100.00;99911.31;5128098;27;20427;-72
2024/03/10 03:30:32;;;;;;;2.22;0.30;;;;;;;6.32;100.00;99907.75;5130334;27;20039;-72
2024/03/10 03:32:58;;;;;;;1.50;0.32;;;;;;;6.32;100.00;99907.75;5129923;27;20168;-71
2024/03/10 03:35:23;;;;;;;1.88;0.30;;;;;;;6.30;100.00;99900.13;5129118;27;20382;-72
2024/03/10 03:37:49;;;;;;;3.55;0.32;;;;;;;6.29;100.00;99898.50;5128440;27;20107;-71
2024/03/10 03:40:15;;;;;;;1.73;0.32;;;;;;;6.28;100.00;99899.44;5130267;27;20055;-72
2024/03/10 03:42:40;;;;;;;2.58;0.47;;;;;;;6.27;100.00;99905.56;5133304;27;20172;-71
2024/03/10 03:45:07;;;;;;;1.33;0.45;;;;;;;6.28;100.00;99898.63;5132284;27;20534;-73
2024/03/10 03:47:32;;;;;;;1.13;0.30;;;;;;;6.28;100.00;99896.84;5130874;27;20095;-71
2024/03/10 03:49:58;;;;;;;1.02;0.28;;;;;;;6.28;100.00;99888.28;5129298;27;20038;-71
2024/03/10 03:52:23;;;;;;;1.27;0.38;;;;;;;6.26;100.00;99882.41;5132065;27;20161;-71
2024/03/10 03:54:51;;;;;;;1.90;0.20;;;;;;;6.26;100.00;99877.25;5131576;27;20088;-71
2024/03/10 03:57:17;;;;;;;0.60;0.30;;;;;;;6.26;100.00;99878.06;5130308;27;20035;-71
2024/03/10 03:59:43;;;;;;;0.98;0.40;;;;;;;6.26;100.00;99870.31;5132140;27;20058;-71
2024/03/10 04:02:08;;;;;;;1.10;0.30;;;;;;;6.25;100.00;99855.72;5130421;27;20035;-71
2024/03/10 04:04:34;;;;;;;1.10;0.30;;;;;;;6.21;100.00;99854.34;5127442;27;20031;-71
2024/03/10 04:06:59;;;;;;;2.75;0.38;;;;;;;6.14;100.00;99855.84;5131877;27;20033;-71
2024/03/10 04:09:25;;;;;;;0.70;0.25;;;;;;;6.08;100.00;99851.19;5126337;27;20127;-71
2024/03/10 04:11:51;;;;;;;1.05;0.30;;;;;;;6.06;100.00;99849.69;5128675;27;20082;-71
2024/03/10 04:14:16;;;;;;;0.70;0.30;;;;;;;6.03;100.00;99850.75;5128455;27;20023;-72
2024/03/10 04:16:45;;;;;;;3.38;0.50;;;;;;;6.04;100.00;99842.06;5131767;27;20042;-71
2024/03/10 04:19:11;;;;;;;0.70;0.35;;;;;;;6.08;100.00;99827.91;5130197;27;20027;-72
2024/03/10 04:21:37;;;;;;;1.33;0.30;;;;;;;6.07;100.00;99825.47;5127642;27;20039;-72
2024/03/10 04:24:07;;;;;;;1.55;0.47;;;;;;;6.00;100.00;99820.00;5127909;27;20041;-72
2024/03/10 04:26:33;;;;;;;0.55;0.20;;;;;;;5.97;100.00;99825.44;5127679;27;20440;-72
2024/03/10 04:28:59;;;;;;;1.20;0.30;;;;;;;5.98;100.00;99811.53;5126989;27;20125;-71
2024/03/10 04:31:24;;;;;;;0.93;0.30;;;;;;;6.04;100.00;99812.78;5126538;27;20106;-72
2024/03/10 04:33:50;;;;;;;2.20;0.25;;;;;;;6.08;100.00;99815.00;5131446;27;20055;-72
2024/03/10 04:36:16;;;;;;;1.42;0.20;;;;;;;6.15;100.00;99808.31;5128969;27;20446;-71
2024/03/10 04:38:43;;;;;;;3.90;0.40;;;;;;;6.22;100.00;99812.00;5112459;27;20046;-71
2024/03/10 04:41:11;;;;;;;1.23;0.30;;;;;;;6.28;100.00;99821.84;5127823;27;20590;-71
2024/03/10 04:43:38;;;;;;;3.88;0.22;;;;;;;6.31;100.00;99824.16;5124880;27;20039;-71
2024/03/10 04:46:05;;;;;;;3.53;0.20;;;;;;;6.32;100.00;99817.22;5127807;27;20043;-71
2024/03/10 04:48:31;;;;;;;1.02;0.22;;;;;;;6.33;100.00;99822.25;5128263;27;20088;-71
2024/03/10 04:50:56;;;;;;;1.33;0.32;;;;;;;6.43;100.00;99821.47;5127832;27;20474;-71
2024/03/10 04:53:22;;;;;;;2.03;0.32;;;;;;;6.45;100.00;99814.38;5127696;27;20042;-71
2024/03/10 04:55:47;;;;;;;2.97;0.20;;;;;;;6.44;100.00;99807.56;5131299;27;20027;-71
2024/03/10 04:58:15;;;;;;;0.80;0.30;;;;;;;6.39;100.00;99807.97;5126048;27;20024;-72
2024/03/10 05:00:41;;;;;;;3.38;0.20;;;;;;;6.39;100.00;99809.75;5125760;27;20030;-72
2024/03/10 05:03:09;;;;;;;0.60;0.20;;;;;;;6.35;100.00;99816.94;5127941;27;20031;-72
2024/03/10 05:05:34;;;;;;;1.17;0.20;;;;;;;6.29;100.00;99810.53;5128180;27;20031;-71
2024/03/10 05:08:00;;;;;;;0.70;0.30;;;;;;;6.28;100.00;99810.66;5109564;27;20126;-71
2024/03/10 05:10:25;;;;;;;2.15;0.30;;;;;;;6.26;100.00;99810.78;5128157;27;20111;-71
2024/03/10 05:12:51;;;;;;;1.85;0.40;;;;;;;6.29;100.00;99817.47;5123597;27;20027;-71
2024/03/10 05:15:17;;;;;;;3.38;0.20;;;;;;;6.30;100.00;99812.16;5129449;27;20031;-71
2024/03/10 05:17:42;;;;;;;5.70;0.35;;;;;;;6.33;100.00;99808.50;5132990;27;20037;-71
2024/03/10 05:20:11;;;;;;;3.90;0.30;;;;;;;6.38;100.00;99808.09;5127358;27;20042;-72
2024/03/10 05:22:39;;;;;;;1.23;0.20;;;;;;;6.37;100.00;99811.63;5131059;27;20346;-71
2024/03/10 05:25:08;;;;;;;1.33;0.20;;;;;;;6.41;100.00;99811.25;5126798;27;20031;-71
2024/03/10 05:27:34;;;;;;;0.70;0.20;;;;;;;6.45;100.00;99814.38;5127693;27;20027;-73
2024/03/10 05:30:00;;;;;;;2.15;0.28;;;;;;;6.45;100.00;99804.03;5130456;27;20042;-71
2024/03/10 05:32:25;;;;;;;0.98;0.25;;;;;;;6.44;100.00;99799.81;5127871;27;20031;-71
2024/03/10 05:34:56;;;;;;;1.70;0.10;;;;;;;6.43;100.00;99803.34;5129777;27;20023;-72
2024/03/10 05:37:24;;;;;;;0.98;0.40;;;;;;;6.46;100.00;99806.50;5129694;27;20030;-71
2024/03/10 05:39:50;;;;;;;0.63;0.17;;;;;;;6.45;100.00;99810.03;5130860;27;20060;-71
2024/03/10 05:42:15;;;;;;;0.90;0.35;;;;;;;6.47;100.00;99794.38;5129839;27;20439;-72
2024/03/10 05:44:41;;;;;;;0.88;0.20;;;;;;;6.44;100.00;99784.28;5130479;27;20031;-71
2024/03/10 05:47:06;;;;;;;1.38;0.30;;;;;;;6.45;100.00;99791.09;5126236;27;20383;-72
2024/03/10 05:49:32;;;;;;;1.08;0.20;;;;;;;6.47;100.00;99796.94;5123379;27;20027;-71
2024/03/10 05:51:57;;;;;;;1.95;0.20;;;;;;;6.49;100.00;99792.47;5128176;27;20088;-71
2024/03/10 05:54:23;;;;;;;1.08;0.30;;;;;;;6.50;100.00;99788.91;5127264;27;20023;-71
2024/03/10 05:56:49;;;;;;;2.03;0.50;;;;;;;6.52;100.00;99784.44;5130564;27;20031;-71
2024/03/10 05:59:14;;;;;;;2.30;0.40;;;;;;;6.57;100.00;99788.25;5129696;27;20160;-71
2024/03/10 06:01:40;;;;;;;3.05;0.30;;;;;;;6.59;100.00;99785.53;5130515;27;20066;-71
2024/03/10 06:04:06;;;;;;;1.13;0.30;;;;;;;6.59;100.00;99775.19;5128821;27;20035;-71
2024/03/10 06:06:32;;;;;;;2.42;0.20;;;;;;;6.62;100.00;99786.03;5130223;27;20027;-71
2024/03/10 06:08:57;;;;;;;1.77;0.30;;;;;;;6.65;100.00;99777.19;5127902;27;20027;-71
2024/03/10 06:11:23;;;;;;;2.10;0.20;;;;;;;6.69;100.00;99777.75;5128678;27;20089;-72
2024/03/10 06:13:49;;;;;;;0.98;0.20;;;;;;;6.73;100.00;99781.69;5130523;27;20059;-71
2024/03/10 06:16:15;;;;;;;2.60;0.30;;;;;;;6.70;100.00;99782.78;5129303;27;20059;-71
2024/03/10 06:26:54;;;;;;;4.32;0.40;;;;;;;6.72;100.00;99803.34;5127005;27;21382;-71
2024/03/10 06:29:24;;;;;;;0.73;0.20;;;;;;;6.73;100.00;99813.59;5125972;27;20034;-71
2024/03/10 06:31:50;;;;;;;0.68;0.20;;;;;;;6.75;100.00;99816.03;5124040;27;20020;-71
2024/03/10 06:34:17;;;;;;;2.58;0.30;;;;;;;6.73;100.00;99816.16;5120299;27;20111;-71
2024/03/10 06:36:43;;;;;;;0.80;0.20;;;;;;;6.71;100.00;99818.06;5124587;27;20073;-71
2024/03/10 06:39:09;;;;;;;0.70;0.20;;;;;;;6.68;100.00;99820.13;5125411;27;20031;-71
2024/03/10 06:41:34;;;;;;;2.65;0.28;;;;;;;6.68;100.00;99810.56;5122432;27;20037;-70
2024/03/10 06:44:04;;;;;;;3.05;0.30;;;;;;;6.66;100.00;99813.31;5122346;27;20131;-70
2024/03/10 06:46:29;;;;;;;1.20;0.30;;;;;;;6.67;100.00;99808.94;5124346;27;20082;-70
2024/03/10 06:48:55;;;;;;;0.73;0.22;;;;;;;6.63;100.00;99812.75;5128363;27;20035;-71
2024/03/10 06:51:22;;;;;;;1.25;0.28;;;;;;;6.61;100.00;99814.69;5129451;27;20505;-71
2024/03/10 06:53:47;;;;;;;0.50;0.20;;;;;;;6.63;100.00;99815.34;5124984;27;20445;-70
2024/03/10 06:56:14;;;;;;;11.98;1.08;;;;;;;6.66;100.00;99817.66;5125116;27;20059;-71
2024/03/10 06:58:43;;;;;;;0.52;0.20;;;;;;;6.66;100.00;99822.84;5124997;27;20070;-70
2024/03/10 07:01:10;;;;;;;0.50;0.10;;;;;;;6.69;100.00;99819.16;5126869;27;20031;-71
2024/03/10 07:03:35;;;;;;;1.15;0.25;;;;;;;6.68;100.00;99820.13;5132864;27;20031;-71
2024/03/10 07:06:02;;;;;;;2.35;0.22;;;;;;;6.63;100.00;99813.56;5133222;27;20023;-72
2024/03/10 07:08:27;;;;;;;0.60;0.25;;;;;;;6.62;100.00;99816.28;5116049;27;20060;-71
2024/03/10 07:10:53;;;;;;;0.80;0.30;;;;;;;6.62;100.00;99821.47;5133583;27;20055;-71
2024/03/10 07:13:18;;;;;;;0.68;0.30;;;;;;;6.62;100.00;99816.28;5132729;27;20038;-72
2024/03/10 07:15:46;;;;;;;0.70;0.20;;;;;;;6.67;100.00;99814.13;5131144;27;20085;-71
2024/03/10 07:18:12;;;;;;;1.55;0.45;;;;;;;6.75;100.00;99814.25;5125954;27;20548;-71
2024/03/10 07:20:39;;;;;;;1.92;0.40;;;;;;;6.79;100.00;99813.03;5129585;27;20039;-71
2024/03/10 07:23:04;;;;;;;1.23;0.20;;;;;;;6.84;100.00;99808.28;5126604;27;20090;-71
2024/03/10 07:25:30;;;;;;;2.00;0.30;;;;;;;6.86;100.00;99808.97;5125569;27;20031;-71
2024/03/10 07:27:56;;;;;;;0.65;0.30;;;;;;;6.94;100.00;99818.63;5128474;27;20023;-71
2024/03/10 07:30:21;;;;;;;1.02;0.30;;;;;;;6.97;100.00;99820.94;5126137;27;20028;-71
2024/03/10 07:32:47;;;;;;;3.03;0.40;;;;;;;6.95;100.00;99817.69;5127528;27;20474;-71
2024/03/10 07:35:13;;;;;;;2.92;0.30;;;;;;;6.93;100.00;99811.81;5125999;27;20058;-71
2024/03/10 07:37:43;;;;;;;3.45;0.50;;;;;;;6.96;100.00;99812.38;5126433;27;20043;-71
2024/03/10 07:40:19;;;;;;;1.17;0.22;;;;;;;7.04;100.00;99816.03;5129374;27;20467;-71
2024/03/10 07:42:47;;;;;;;2.60;0.20;;;;;;;7.10;100.00;99815.47;5128998;27;20057;-71
2024/03/10 07:45:17;;;;;;;1.88;0.30;;;;;;;7.04;100.00;99810.88;5125000;27;20049;-71
2024/03/10 07:47:44;;;;;;;0.43;0.20;;;;;;;7.02;100.00;99812.78;5125609;27;20038;-72
2024/03/10 07:50:13;;;;;;;0.55;0.20;;;;;;;6.98;100.00;99815.63;5113317;27;20122;-71
2024/03/10 07:52:40;;;;;;;1.27;0.65;;;;;;;6.97;100.00;99805.41;5127675;27;20061;-72
2024/03/10 07:55:07;;;;;;;0.88;0.20;;;;;;;7.02;100.00;99794.66;5126129;27;20051;-71
2024/03/10 07:57:33;;;;;;;0.75;0.10;;;;;;;7.05;100.00;99800.38;5131008;27;20038;-71
2024/03/10 08:00:00;;;;;;;0.50;0.20;;;;;;;7.08;100.00;99791.50;5127256;27;20073;-71
2024/03/10 08:02:25;;;;;;;1.27;0.20;;;;;;;7.09;100.00;99787.97;5126437;27;20383;-71
2024/03/10 08:04:51;;;;;;;1.48;0.32;;;;;;;7.16;100.00;99781.25;5130409;27;20043;-71
2024/03/10 08:07:17;;;;;;;3.58;0.40;;;;;;;7.19;100.00;99792.16;5127072;27;20195;-71
2024/03/10 08:09:42;;;;;;;1.30;0.30;;;;;;;7.22;100.00;99784.09;5129130;27;20035;-70
2024/03/10 08:12:08;;;;;;;1.15;0.30;;;;;;;7.28;100.00;99790.50;5125920;27;20038;-71
2024/03/10 08:14:35;;;;;;;2.78;0.50;;;;;;;7.37;100.00;99805.22;5129163;27;20031;-71
2024/03/10 08:17:01;;;;;;;1.50;0.35;;;;;;;7.43;100.00;99796.88;5131118;27;20110;-71
2024/03/10 08:19:26;;;;;;;2.53;0.60;;;;;;;7.44;100.00;99785.56;5133484;27;20163;-72
2024/03/10 08:21:51;;;;;;;1.50;0.30;;;;;;;7.47;100.00;99772.31;5132210;27;20047;-70
2024/03/10 08:24:17;;;;;;;3.08;0.20;;;;;;;7.49;100.00;99772.19;5130378;27;20027;-70
2024/03/10 08:26:43;;;;;;;0.90;0.32;;;;;;;7.51;100.00;99778.84;5134781;27;20031;-70
2024/03/10 08:29:08;;;;;;;1.83;0.43;;;;;;;7.55;100.00;99774.19;5126912;27;20035;-70
2024/03/10 08:31:34;;;;;;;0.90;0.30;;;;;;;7.56;100.00;99773.25;5129526;27;20019;-70
2024/03/10 08:33:59;;;;;;;0.75;0.20;;;;;;;7.53;100.00;99776.94;5131117;27;20042;-70
2024/03/10 08:36:25;;;;;;;2.83;0.30;;;;;;;7.51;100.00;99768.47;5130408;27;20031;-70
2024/03/10 08:38:50;;;;;;;0.60;0.15;;;;;;;7.50;100.00;99761.66;5130030;27;20113;-70
2024/03/10 08:41:16;;;;;;;0.90;0.20;;;;;;;7.51;100.00;99758.13;5129685;27;20038;-70
2024/03/10 08:43:41;;;;;;;0.40;0.13;;;;;;;7.54;100.00;99744.88;5126862;27;20027;-70
2024/03/10 08:46:07;;;;;;;0.63;0.20;;;;;;;7.49;100.00;99739.28;5128742;27;20035;-71
2024/03/10 08:48:32;;;;;;;1.65;0.43;;;;;;;7.51;100.00;99727.00;5123617;27;20035;-72
2024/03/10 08:50:58;;;;;;;0.30;0.10;;;;;;;7.56;100.00;99717.00;5129733;27;20031;-70
2024/03/10 08:53:24;;;;;;;0.47;0.20;;;;;;;7.60;100.00;99720.13;5129178;27;20027;-70
2024/03/10 08:55:50;;;;;;;2.38;0.20;;;;;;;7.60;100.00;99712.34;5126102;27;20046;-70
2024/03/10 08:58:17;;;;;;;1.17;0.30;;;;;;;7.59;100.00;99711.53;5130057;27;20035;-70
2024/03/10 09:00:43;;;;;;;0.63;0.20;;;;;;;7.62;100.00;99703.47;5124235;27;20054;-70
2024/03/10 09:03:09;;;;;;;3.13;0.30;;;;;;;7.66;100.00;99702.22;5130527;27;20045;-71
2024/03/10 09:05:35;;;;;;;3.08;0.30;;;;;;;7.69;100.00;99708.09;5131594;27;20114;-70
2024/03/10 09:08:00;;;;;;;2.95;0.35;;;;;;;7.73;100.00;99699.06;5129665;27;20102;-70
2024/03/10 09:10:27;;;;;;;1.38;0.35;;;;;;;7.74;100.00;99696.31;5110187;27;20573;-71
2024/03/10 09:12:52;;;;;;;0.60;0.15;;;;;;;7.81;100.00;99691.38;5131156;27;20106;-70
2024/03/10 09:15:19;;;;;;;1.83;0.20;;;;;;;7.84;100.00;99684.13;5130449;27;20106;-70
2024/03/10 09:17:46;;;;;;;1.13;0.20;;;;;;;7.90;100.00;99693.09;5112663;27;20058;-70
2024/03/10 09:20:13;;;;;;;2.13;0.30;;;;;;;7.95;100.00;99681.31;5130654;27;20039;-70
2024/03/10 09:22:43;;;;;;;4.82;0.40;;;;;;;8.01;100.00;99684.28;5133613;27;20034;-70
2024/03/10 09:25:30;;;;;;;1.88;0.50;;;;;;;8.04;100.00;99682.19;5129671;27;20115;-70
2024/03/10 09:27:56;;;;;;;1.88;0.50;;;;;;;8.07;100.00;99671.53;5129296;27;20076;-70
2024/03/10 09:30:23;;;;;;;2.90;0.30;;;;;;;8.12;100.00;99661.53;5130355;27;20445;-70
2024/03/10 09:32:50;;;;;;;4.10;0.50;;;;;;;8.18;100.00;99666.13;5129693;27;20041;-70
2024/03/10 09:35:28;;;;;;;4.88;0.85;;;;;;;8.22;100.00;99669.25;5127710;27;20031;-70
2024/03/10 09:38:06;;;;;;;1.42;0.25;;;;;;;8.35;100.00;99661.94;5130039;27;20145;-71
2024/03/10 09:40:31;;;;;;;1.40;0.30;;;;;;;8.46;100.00;99651.31;5127666;27;20042;-70
2024/03/10 09:43:07;;;;;;;1.02;0.20;;;;;;;8.52;100.00;99655.88;5131061;27;20035;-70
2024/03/10 09:45:43;;;;;;;3.20;0.17;;;;;;;8.52;100.00;99650.69;5128710;27;20104;-71
2024/03/10 09:48:09;;;;;;;4.43;0.30;;;;;;;8.53;100.00;99661.88;5124859;27;20027;-70
2024/03/10 09:50:48;;;;;;;1.35;0.40;;;;;;;8.57;100.00;99652.84;5128937;27;20062;-70
2024/03/10 09:53:17;;;;;;;1.25;0.43;;;;;;;8.50;100.00;99657.84;5126135;27;20034;-71
2024/03/10 09:55:43;;;;;;;1.85;0.20;;;;;;;8.57;100.00;99658.84;5131012;27;20080;-71
2024/03/10 09:58:15;;;;;;;1.95;0.30;;;;;;;8.73;100.00;99647.75;5130209;27;20031;-70
2024/03/10 10:00:44;;;;;;;0.98;0.20;;;;;;;8.76;100.00;99651.84;5128933;27;20088;-71
2024/03/10 10:03:12;;;;;;;3.15;0.30;;;;;;;8.75;100.00;99645.81;5129823;27;20046;-69
2024/03/10 10:05:52;;;;;;;8.05;0.50;;;;;;;8.71;100.00;99638.50;5125418;27;20031;-68
2024/03/10 10:08:18;;;;;;;3.53;0.50;;;;;;;8.71;100.00;99639.31;5127698;27;20468;-70
2024/03/10 10:10:51;;;;;;;1.35;0.40;;;;;;;8.68;100.00;99633.59;5130089;27;20047;-70
2024/03/10 10:13:38;;;;;;;0.90;0.30;;;;;;;8.61;100.00;99638.59;5126771;27;20109;-69
2024/03/10 10:16:08;;;;;;;1.80;0.55;;;;;;;8.60;100.00;99627.38;5119157;27;20031;-70
2024/03/10 10:18:36;;;;;;;3.17;0.43;;;;;;;8.67;100.00;99622.41;5123359;27;20114;-69
2024/03/10 10:21:10;;;;;;;3.25;0.50;;;;;;;8.77;100.00;99617.09;5121329;27;20034;-69
2024/03/10 10:23:35;;;;;;;1.92;0.57;;;;;;;8.82;100.00;99613.09;5123847;27;20494;-69
2024/03/10 10:26:12;;;;;;;1.65;0.40;;;;;;;8.83;100.00;99612.13;5113559;27;20039;-69
2024/03/10 10:28:44;;;;;;;2.25;0.60;;;;;;;8.87;100.00;99607.44;5119351;27;20477;-69
2024/03/10 10:31:10;;;;;;;3.45;0.50;;;;;;;8.86;100.00;99614.41;5118153;27;20038;-69
2024/03/10 10:33:38;;;;;;;3.38;0.60;;;;;;;8.85;100.00;99609.38;5118085;27;20052;-69
2024/03/10 10:36:07;;;;;;;1.73;0.93;;;;;;;8.80;100.00;99612.41;5129191;27;20069;-68
2024/03/10 10:38:45;;;;;;;1.65;0.40;;;;;;;8.78;100.00;99614.34;5129524;27;20070;-69
2024/03/10 10:41:12;;;;;;;1.45;0.35;;;;;;;8.79;100.00;99610.78;5121160;27;20043;-69
2024/03/10 10:43:38;;;;;;;2.95;0.50;;;;;;;8.84;100.00;99605.94;5123693;27;20023;-69
2024/03/10 10:46:12;;;;;;;2.80;0.60;;;;;;;8.85;100.00;99593.78;5123108;27;20023;-69
2024/03/10 10:48:39;;;;;;;1.83;0.50;;;;;;;8.87;100.00;99597.84;5129384;27;20062;-69
2024/03/10 10:51:06;;;;;;;5.38;0.98;;;;;;;8.86;100.00;99596.22;5127059;27;20027;-69
2024/03/10 10:53:33;;;;;;;3.00;0.82;;;;;;;8.83;100.00;99586.13;5128421;27;20478;-69
2024/03/10 10:55:59;;;;;;;2.08;0.50;;;;;;;8.81;100.00;99587.25;5125748;27;20031;-69
2024/03/10 10:58:31;;;;;;;2.15;0.50;;;;;;;8.77;100.00;99584.16;5104965;27;20130;-69
2024/03/10 11:01:04;;;;;;;2.28;0.40;;;;;;;8.76;100.00;99576.53;5127469;27;20031;-70
2024/03/10 11:03:41;;;;;;;4.78;0.80;;;;;;;8.77;100.00;99573.78;5128772;27;20046;-69
2024/03/10 11:06:08;;;;;;;3.28;0.50;;;;;;;8.81;100.00;99563.88;5131438;27;20058;-69
2024/03/10 11:08:35;;;;;;;3.25;0.75;;;;;;;8.80;100.00;99560.47;5130359;27;20059;-69
2024/03/10 11:11:05;;;;;;;1.63;0.50;;;;;;;8.72;100.00;99557.84;5121660;27;20068;-69
2024/03/10 11:13:30;;;;;;;5.28;0.70;;;;;;;8.69;100.00;99552.13;5126631;27;20092;-69
2024/03/10 11:16:24;;;;;;;4.03;0.75;;;;;;;8.68;100.00;99545.31;5130384;27;20646;-69
2024/03/10 11:18:50;;;;;;;4.45;0.30;;;;;;;8.71;100.00;99539.81;5122074;27;20050;-69
2024/03/10 11:21:17;;;;;;;1.27;0.40;;;;;;;8.72;100.00;99537.06;5126448;27;20398;-69
2024/03/10 11:23:45;;;;;;;2.55;0.63;;;;;;;8.75;100.00;99530.75;5127741;27;20027;-69
2024/03/10 11:26:15;;;;;;;2.30;0.43;;;;;;;8.72;100.00;99520.66;5125832;27;20023;-69
2024/03/10 11:28:53;;;;;;;4.25;0.30;;;;;;;8.75;100.00;99521.16;5126626;27;20450;-69
2024/03/10 11:31:27;;;;;;;1.85;0.40;;;;;;;8.84;100.00;99507.25;5123568;27;20490;-69
2024/03/10 11:33:56;;;;;;;3.33;0.40;;;;;;;8.97;100.00;99510.22;5131381;27;20125;-69
2024/03/10 11:36:22;;;;;;;2.88;0.55;;;;;;;9.07;100.00;99504.06;5124799;27;20031;-69
2024/03/10 11:38:51;;;;;;;2.03;0.43;;;;;;;9.13;100.00;99513.81;5129233;27;20051;-69
2024/03/10 11:41:19;;;;;;;6.57;0.60;;;;;;;9.17;100.00;99509.94;5128244;27;20069;-69
2024/03/10 11:43:48;;;;;;;3.05;0.40;;;;;;;9.14;100.00;99515.44;5128092;27;20031;-69
2024/03/10 11:46:22;;;;;;;2.85;0.40;;;;;;;9.10;100.00;99514.13;5128239;27;20027;-69
2024/03/10 11:48:52;;;;;;;2.00;0.40;;;;;;;9.11;100.00;99515.75;5125207;27;20035;-69
2024/03/10 11:51:20;;;;;;;4.13;0.63;;;;;;;9.16;100.00;99521.31;5129256;27;20031;-69
2024/03/10 11:53:46;;;;;;;1.23;0.32;;;;;;;9.10;100.00;99519.34;5126412;27;20447;-72
2024/03/10 11:56:14;;;;;;;3.58;0.82;;;;;;;9.02;100.00;99520.13;5125904;27;20057;-69